createdAt,value
2023-04-07T00:02:38.293Z,101302.78
2023-04-07T00:05:24.807Z,101303.38
2023-04-07T00:08:11.250Z,101315.31
2023-04-07T00:10:58.405Z,101308.75
2023-04-07T00:13:46.004Z,101302.69
2023-04-07T00:16:32.322Z,101303.38
2023-04-07T00:19:18.666Z,101308.69
2023-04-07T00:22:04.990Z,101311.97
2023-04-07T00:24:51.212Z,101316.88
2023-04-07T00:27:37.572Z,101318.97
2023-04-07T00:30:25.000Z,101320.38
2023-04-07T00:33:11.394Z,101311.53
2023-04-07T00:35:58.771Z,101313.75
2023-04-07T00:38:45.290Z,101317.78
2023-04-07T00:41:31.545Z,101310.19
2023-04-07T00:44:18.236Z,101311.84
2023-04-07T00:47:06.232Z,101317.94
2023-04-07T00:49:52.921Z,101318.69
2023-04-07T00:52:39.174Z,101314.56
2023-04-07T00:55:25.272Z,101313.44
2023-04-07T00:58:11.787Z,101318.47
2023-04-07T01:01:08.299Z,101312.88
2023-04-07T01:04:02.457Z,101313.34
2023-04-07T01:06:52.418Z,101310.53
2023-04-07T01:09:49.102Z,101312.56
2023-04-07T01:12:41.031Z,101321.81
2023-04-07T01:15:31.085Z,101316.94
2023-04-07T01:18:23.149Z,101304.00
2023-04-07T01:21:15.063Z,101317.91
2023-04-07T01:24:30.013Z,101312.06
2023-04-07T01:27:22.857Z,101318.78
2023-04-07T01:30:13.617Z,101315.03
2023-04-07T01:33:02.669Z,101315.91
2023-04-07T01:35:51.277Z,101318.81
2023-04-07T01:38:38.727Z,101319.75
2023-04-07T01:41:26.365Z,101312.59
2023-04-07T01:44:13.705Z,101326.00
2023-04-07T01:47:03.199Z,101336.84
2023-04-07T01:49:51.478Z,101331.66
2023-04-07T01:52:38.994Z,101338.63
2023-04-07T01:55:26.575Z,101325.38
2023-04-07T01:58:22.083Z,101331.66
2023-04-07T02:01:08.873Z,101340.91
2023-04-07T02:04:07.717Z,101327.91
2023-04-07T02:07:02.939Z,101337.19
2023-04-07T02:09:57.505Z,101337.19
2023-04-07T02:12:47.119Z,101334.91
2023-04-07T02:15:38.086Z,101327.50
2023-04-07T02:18:26.195Z,101321.09
2023-04-07T02:21:15.474Z,101323.28
2023-04-07T02:24:07.384Z,101325.59
2023-04-07T02:26:53.769Z,101325.97
2023-04-07T02:29:39.819Z,101327.31
2023-04-07T02:32:26.227Z,101327.91
2023-04-07T02:35:12.656Z,101325.84
2023-04-07T02:38:00.418Z,101322.44
2023-04-07T02:40:46.689Z,101324.09
2023-04-07T02:43:32.753Z,101327.25
2023-04-07T02:46:19.113Z,101329.06
2023-04-07T02:49:05.755Z,101331.47
2023-04-07T02:51:52.082Z,101334.16
2023-04-07T02:54:39.652Z,101339.31
2023-04-07T02:57:27.204Z,101342.91
2023-04-07T03:00:17.460Z,101338.59
2023-04-07T03:03:14.609Z,101336.66
2023-04-07T03:06:07.596Z,101342.69
2023-04-07T03:08:59.144Z,101339.31
2023-04-07T03:11:47.029Z,101328.03
2023-04-07T03:14:33.448Z,101337.31
2023-04-07T03:17:21.270Z,101342.66
2023-04-07T03:20:09.281Z,101332.41
2023-04-07T03:22:57.250Z,101343.25
2023-04-07T03:25:48.609Z,101331.84
2023-04-07T03:28:37.038Z,101331.50
2023-04-07T03:31:23.955Z,101336.81
2023-04-07T03:34:12.371Z,101334.66
2023-04-07T03:36:58.896Z,101332.25
2023-04-07T03:39:45.638Z,101342.56
2023-04-07T03:42:44.363Z,101336.25
2023-04-07T03:45:35.712Z,101347.81
2023-04-07T03:48:22.464Z,101342.34
2023-04-07T03:51:18.516Z,101341.09
2023-04-07T03:54:06.835Z,101346.03
2023-04-07T03:56:58.277Z,101342.22
2023-04-07T03:59:46.053Z,101346.22
2023-04-07T04:02:33.897Z,101354.28
2023-04-07T04:05:20.084Z,101343.16
2023-04-07T04:08:07.953Z,101352.28
2023-04-07T04:10:58.289Z,101345.69
2023-04-07T04:13:50.359Z,101345.75
2023-04-07T04:16:37.370Z,101347.66
2023-04-07T04:19:31.722Z,101340.56
2023-04-07T04:22:21.902Z,101349.84
2023-04-07T04:25:11.825Z,101347.31
2023-04-07T04:28:00.158Z,101354.59
2023-04-07T04:30:46.746Z,101352.06
2023-04-07T04:33:33.353Z,101351.53
2023-04-07T04:36:21.077Z,101355.94
2023-04-07T04:39:08.814Z,101351.56
2023-04-07T04:41:56.580Z,101349.56
2023-04-07T04:44:49.884Z,101356.66
2023-04-07T04:47:38.926Z,101364.59
2023-04-07T04:50:25.749Z,101373.91
2023-04-07T04:53:13.965Z,101379.13
2023-04-07T04:56:11.226Z,101382.31
2023-04-07T04:59:06.841Z,101387.06
2023-04-07T05:02:01.488Z,101385.88
2023-04-07T05:04:48.158Z,101390.75
2023-04-07T05:07:47.572Z,101384.34
2023-04-07T05:10:39.549Z,101385.00
2023-04-07T05:13:30.684Z,101384.88
2023-04-07T05:16:20.184Z,101380.31
2023-04-07T05:19:07.101Z,101384.53
2023-04-07T05:21:53.416Z,101381.19
2023-04-07T05:24:41.588Z,101389.78
2023-04-07T05:27:29.557Z,101390.63
2023-04-07T05:30:21.761Z,101395.38
2023-04-07T05:33:08.368Z,101394.53
2023-04-07T05:36:10.119Z,101398.75
2023-04-07T05:38:58.459Z,101396.88
2023-04-07T05:41:45.727Z,101396.31
2023-04-07T05:44:34.121Z,101396.31
2023-04-07T05:47:20.615Z,101394.75
2023-04-07T05:50:12.175Z,101397.16
2023-04-07T05:52:59.156Z,101402.03
2023-04-07T05:55:46.716Z,101408.41
2023-04-07T05:58:42.159Z,101417.91
2023-04-07T06:01:31.172Z,101416.69
2023-04-07T06:04:17.561Z,101420.00
2023-04-07T06:07:06.069Z,101421.28
2023-04-07T06:09:52.659Z,101433.81
2023-04-07T06:12:38.595Z,101435.63
2023-04-07T06:15:25.576Z,101436.59
2023-04-07T06:18:13.351Z,101431.59
2023-04-07T06:20:59.410Z,101437.44
2023-04-07T06:23:45.941Z,101436.31
2023-04-07T06:26:32.526Z,101437.97
2023-04-07T06:29:18.883Z,101434.94
2023-04-07T06:32:05.301Z,101437.63
2023-04-07T06:34:52.731Z,101449.56
2023-04-07T06:37:40.433Z,101443.22
2023-04-07T06:40:26.513Z,101453.59
2023-04-07T06:43:13.061Z,101448.34
2023-04-07T06:46:09.777Z,101444.50
2023-04-07T06:48:56.413Z,101453.09
2023-04-07T06:51:44.143Z,101458.00
2023-04-07T06:54:30.334Z,101462.66
2023-04-07T06:57:17.482Z,101466.97
2023-04-07T07:00:04.274Z,101462.19
2023-04-07T07:02:50.951Z,101466.81
2023-04-07T07:05:37.210Z,101468.97
2023-04-07T07:08:24.950Z,101470.66
2023-04-07T07:11:11.841Z,101474.34
2023-04-07T07:13:58.120Z,101473.59
2023-04-07T07:16:44.218Z,101483.34
2023-04-07T07:19:30.325Z,101477.91
2023-04-07T07:22:16.783Z,101474.44
2023-04-07T07:25:05.060Z,101485.38
2023-04-07T07:27:53.283Z,101488.81
2023-04-07T07:30:40.655Z,101487.72
2023-04-07T07:33:27.481Z,101497.00
2023-04-07T07:36:13.991Z,101500.94
2023-04-07T07:39:00.857Z,101502.06
2023-04-07T07:41:48.300Z,101504.97
2023-04-07T07:44:34.630Z,101500.66
2023-04-07T07:47:21.104Z,101501.78
2023-04-07T07:50:08.109Z,101510.69
2023-04-07T07:52:54.414Z,101513.47
2023-04-07T07:55:40.980Z,101511.88
2023-04-07T07:58:28.501Z,101520.03
2023-04-07T08:01:14.774Z,101518.25
2023-04-07T08:04:01.411Z,101523.16
2023-04-07T08:06:47.881Z,101523.75
2023-04-07T08:09:34.307Z,101530.78
2023-04-07T08:12:20.913Z,101530.38
2023-04-07T08:15:10.348Z,101529.41
2023-04-07T08:17:56.863Z,101536.25
2023-04-07T08:20:43.692Z,101537.00
2023-04-07T08:23:30.093Z,101542.53
2023-04-07T08:26:16.391Z,101548.31
2023-04-07T08:29:02.802Z,101549.50
2023-04-07T08:31:50.507Z,101549.13
2023-04-07T08:34:36.933Z,101556.22
2023-04-07T08:37:23.547Z,101552.66
2023-04-07T08:40:10.610Z,101567.88
2023-04-07T08:42:59.904Z,101557.00
2023-04-07T08:45:47.569Z,101563.44
2023-04-07T08:48:36.422Z,101569.00
2023-04-07T08:51:29.546Z,101581.00
2023-04-07T08:54:18.857Z,101571.22
2023-04-07T08:57:06.025Z,101584.41
2023-04-07T08:59:52.693Z,101580.06
2023-04-07T09:02:43.208Z,101588.28
2023-04-07T09:05:35.563Z,101587.00
2023-04-07T09:08:22.271Z,101591.69
2023-04-07T09:11:08.604Z,101591.34
2023-04-07T09:13:55.584Z,101593.44
2023-04-07T09:16:42.726Z,101594.97
2023-04-07T09:19:32.141Z,101599.50
2023-04-07T09:22:35.969Z,101596.00
2023-04-07T09:25:27.139Z,101606.66
2023-04-07T09:28:13.765Z,101601.13
2023-04-07T09:31:00.276Z,101607.78
2023-04-07T09:33:47.337Z,101601.88
2023-04-07T09:36:42.436Z,101605.31
2023-04-07T09:39:30.626Z,101599.50
2023-04-07T09:42:16.825Z,101604.31
2023-04-07T09:45:03.772Z,101600.59
2023-04-07T09:47:50.670Z,101609.50
2023-04-07T09:50:40.988Z,101611.63
2023-04-07T09:53:42.992Z,101624.72
2023-04-07T09:56:31.149Z,101636.44
2023-04-07T09:59:18.121Z,101648.53
2023-04-07T10:02:04.951Z,101647.09
2023-04-07T10:04:51.558Z,101641.28
2023-04-07T10:07:38.061Z,101650.41
2023-04-07T10:10:24.662Z,101644.69
2023-04-07T10:13:13.280Z,101655.13
2023-04-07T10:16:00.321Z,101658.38
2023-04-07T10:18:47.254Z,101651.81
2023-04-07T10:21:37.159Z,101656.63
2023-04-07T10:24:37.697Z,101657.06
2023-04-07T10:27:32.191Z,101660.59
2023-04-07T10:30:25.025Z,101659.81
2023-04-07T10:33:11.390Z,101661.59
2023-04-07T10:36:05.638Z,101669.31
2023-04-07T10:39:23.246Z,101665.25
2023-04-07T10:42:48.330Z,101684.28
2023-04-07T10:46:00.125Z,101683.09
2023-04-07T10:49:09.705Z,101684.94
2023-04-07T10:52:23.916Z,101687.41
2023-04-07T10:55:34.914Z,101686.72
2023-04-07T10:58:23.124Z,101680.06
2023-04-07T11:01:32.345Z,101682.06
2023-04-07T11:04:18.540Z,101683.94
2023-04-07T11:07:04.883Z,101683.34
2023-04-07T11:09:51.475Z,101684.97
2023-04-07T11:12:37.505Z,101686.28
2023-04-07T11:15:24.103Z,101695.13
2023-04-07T11:18:17.392Z,101688.25
2023-04-07T11:21:08.068Z,101692.69
2023-04-07T11:23:54.316Z,101706.53
2023-04-07T11:26:42.283Z,101697.16
2023-04-07T11:29:30.355Z,101704.94
2023-04-07T11:32:17.025Z,101699.50
2023-04-07T11:35:07.681Z,101705.78
2023-04-07T11:37:58.895Z,101705.31
2023-04-07T11:40:45.393Z,101703.13
2023-04-07T11:43:32.273Z,101713.94
2023-04-07T11:46:19.770Z,101715.56
2023-04-07T11:49:13.965Z,101720.16
2023-04-07T11:52:03.302Z,101712.53
2023-04-07T11:54:50.486Z,101722.25
2023-04-07T11:57:36.651Z,101730.41
2023-04-07T12:00:23.480Z,101719.31
2023-04-07T12:03:16.082Z,101730.94
2023-04-07T12:06:03.707Z,101729.53
2023-04-07T12:08:51.202Z,101728.50
2023-04-07T12:11:37.481Z,101729.13
2023-04-07T12:14:23.937Z,101737.59
2023-04-07T12:17:24.100Z,101747.13
2023-04-07T12:20:12.038Z,101750.97
2023-04-07T12:23:02.822Z,101745.06
2023-04-07T12:25:55.709Z,101750.28
2023-04-07T12:28:42.097Z,101754.63
2023-04-07T12:31:28.919Z,101754.63
2023-04-07T12:34:15.594Z,101756.97
2023-04-07T12:37:02.056Z,101759.88
2023-04-07T12:39:48.235Z,101763.91
2023-04-07T12:42:35.746Z,101762.63
2023-04-07T12:45:22.637Z,101764.22
2023-04-07T12:48:09.731Z,101766.13
2023-04-07T12:50:56.395Z,101763.88
2023-04-07T12:53:42.901Z,101770.28
2023-04-07T12:56:30.849Z,101766.88
2023-04-07T12:59:18.613Z,101778.81
2023-04-07T13:02:05.105Z,101776.13
2023-04-07T13:04:51.631Z,101785.25
2023-04-07T13:07:37.881Z,101791.00
2023-04-07T13:10:24.409Z,101791.09
2023-04-07T13:13:11.176Z,101773.00
2023-04-07T13:15:58.907Z,101788.09
2023-04-07T13:18:44.973Z,101780.22
2023-04-07T13:24:21.517Z,101782.06
2023-04-07T13:27:08.778Z,101776.25
2023-04-07T13:29:54.942Z,101779.28
2023-04-07T13:32:42.818Z,101781.38
2023-04-07T13:35:30.274Z,101785.41
2023-04-07T13:38:16.878Z,101785.13
2023-04-07T13:41:04.017Z,101791.56
2023-04-07T13:43:51.654Z,101797.53
2023-04-07T13:46:38.295Z,101797.44
2023-04-07T13:49:26.355Z,101793.81
2023-04-07T13:52:13.501Z,101792.16
2023-04-07T13:54:59.781Z,101797.31
2023-04-07T13:57:46.386Z,101795.88
2023-04-07T14:00:35.391Z,101793.53
2023-04-07T14:03:22.581Z,101794.75
2023-04-07T14:06:10.746Z,101794.34
2023-04-07T14:08:57.358Z,101808.34
2023-04-07T14:11:43.703Z,101802.59
2023-04-07T14:14:30.369Z,101807.63
2023-04-07T14:17:16.662Z,101805.91
2023-04-07T14:20:03.920Z,101804.03
2023-04-07T14:22:52.155Z,101808.56
2023-04-07T14:25:38.262Z,101805.75
2023-04-07T14:28:25.145Z,101803.50
2023-04-07T14:31:16.264Z,101808.75
2023-04-07T14:34:02.773Z,101816.47
2023-04-07T14:36:56.043Z,101806.41
2023-04-07T14:39:51.651Z,101815.94
2023-04-07T14:42:46.315Z,101813.34
2023-04-07T14:45:32.735Z,101811.03
2023-04-07T14:48:18.686Z,101809.66
2023-04-07T14:51:09.803Z,101807.25
2023-04-07T14:53:57.718Z,101815.38
2023-04-07T14:56:45.490Z,101815.50
2023-04-07T14:59:31.984Z,101812.22
2023-04-07T15:02:18.376Z,101820.91
2023-04-07T15:05:05.796Z,101816.00
2023-04-07T15:07:52.515Z,101814.53
2023-04-07T15:10:39.254Z,101816.19
2023-04-07T15:13:27.752Z,101825.81
2023-04-07T15:16:16.113Z,101825.66
2023-04-07T15:19:02.421Z,101822.84
2023-04-07T15:21:48.842Z,101820.53
2023-04-07T15:24:34.945Z,101820.47
2023-04-07T15:27:21.060Z,101827.66
2023-04-07T15:30:10.156Z,101831.09
2023-04-07T15:33:00.448Z,101834.75
2023-04-07T15:35:46.954Z,101832.59
2023-04-07T15:38:33.399Z,101837.31
2023-04-07T15:41:19.999Z,101842.56
2023-04-07T15:44:06.693Z,101842.44
2023-04-07T15:46:54.890Z,101843.22
2023-04-07T15:49:42.327Z,101849.88
2023-04-07T15:52:29.412Z,101851.91
2023-04-07T15:55:15.591Z,101854.22
2023-04-07T15:58:02.100Z,101850.56
2023-04-07T16:00:53.196Z,101854.66
2023-04-07T16:03:40.861Z,101850.72
2023-04-07T16:06:30.013Z,101843.53
2023-04-07T16:09:16.551Z,101842.34
2023-04-07T16:12:05.500Z,101842.50
2023-04-07T16:14:52.306Z,101843.41
2023-04-07T16:17:40.425Z,101840.19
2023-04-07T16:20:28.178Z,101843.75
2023-04-07T16:23:14.967Z,101842.69
2023-04-07T16:26:04.352Z,101838.25
2023-04-07T16:28:50.617Z,101845.63
2023-04-07T16:31:41.162Z,101845.75
2023-04-07T16:34:27.942Z,101853.31
2023-04-07T16:37:15.708Z,101863.25
2023-04-07T16:40:02.042Z,101859.88
2023-04-07T16:42:48.728Z,101859.72
2023-04-07T16:45:35.231Z,101853.78
2023-04-07T16:48:21.834Z,101857.25
2023-04-07T16:51:13.984Z,101856.25
2023-04-07T16:54:02.241Z,101861.00
2023-04-07T16:56:50.430Z,101853.53
2023-04-07T16:59:36.525Z,101853.03
2023-04-07T17:02:22.843Z,101847.13
2023-04-07T17:05:10.131Z,101843.56
2023-04-07T17:07:57.361Z,101853.69
2023-04-07T17:10:45.285Z,101860.28
2023-04-07T17:13:31.272Z,101865.16
2023-04-07T17:16:17.532Z,101862.28
2023-04-07T17:19:03.852Z,101870.66
2023-04-07T17:21:50.603Z,101875.28
2023-04-07T17:24:37.175Z,101878.09
2023-04-07T17:27:25.093Z,101881.34
2023-04-07T17:30:12.469Z,101881.00
2023-04-07T17:32:59.235Z,101889.78
2023-04-07T17:35:47.440Z,101898.34
2023-04-07T17:38:35.967Z,101899.16
2023-04-07T17:41:22.703Z,101903.41
2023-04-07T17:44:10.901Z,101902.03
2023-04-07T17:46:56.937Z,101901.53
2023-04-07T17:49:43.239Z,101907.13
2023-04-07T17:52:30.453Z,101906.78
2023-04-07T17:55:17.686Z,101915.59
2023-04-07T17:58:04.088Z,101911.38
2023-04-07T18:00:52.079Z,101916.31
2023-04-07T18:03:39.108Z,101913.16
2023-04-07T18:06:25.195Z,101920.38
2023-04-07T18:09:11.509Z,101907.81
2023-04-07T18:11:57.959Z,101918.84
2023-04-07T18:14:46.884Z,101915.28
2023-04-07T18:17:34.882Z,101916.13
2023-04-07T18:20:21.525Z,101931.41
2023-04-07T18:23:08.255Z,101933.63
2023-04-07T18:25:54.710Z,101935.28
2023-04-07T18:28:41.133Z,101938.72
2023-04-07T18:31:27.622Z,101938.50
2023-04-07T18:34:15.617Z,101956.31
2023-04-07T18:37:01.931Z,101955.81
2023-04-07T18:39:48.024Z,101959.19
2023-04-07T18:42:34.279Z,101965.00
2023-04-07T18:45:21.850Z,101977.19
2023-04-07T18:48:08.301Z,101984.13
2023-04-07T18:50:56.619Z,101982.63
2023-04-07T18:53:43.240Z,101983.16
2023-04-07T18:56:34.645Z,101984.31
2023-04-07T18:59:21.219Z,101983.84
2023-04-07T19:02:07.732Z,101990.63
2023-04-07T19:04:54.223Z,101999.44
2023-04-07T19:07:41.782Z,101996.38
2023-04-07T19:10:28.085Z,101996.22
2023-04-07T19:13:16.022Z,101985.16
2023-04-07T19:16:03.093Z,101996.72
2023-04-07T19:18:49.317Z,101986.31
2023-04-07T19:21:35.923Z,101980.69
2023-04-07T19:24:23.566Z,101981.03
2023-04-07T19:27:12.041Z,101984.50
2023-04-07T19:29:58.769Z,101977.75
2023-04-07T19:32:45.435Z,101979.75
2023-04-07T19:35:31.894Z,101982.25
2023-04-07T19:38:18.452Z,101978.72
2023-04-07T19:41:06.345Z,101986.53
2023-04-07T19:43:53.241Z,101982.94
2023-04-07T19:46:39.653Z,101985.56
2023-04-07T19:49:25.968Z,101988.25
2023-04-07T19:52:12.192Z,101982.22
2023-04-07T19:54:58.353Z,101977.25
2023-04-07T19:57:45.973Z,101981.50
2023-04-07T20:00:33.533Z,101976.75
2023-04-07T20:03:20.798Z,101985.63
2023-04-07T20:06:07.370Z,101992.97
2023-04-07T20:08:54.151Z,102000.41
2023-04-07T20:11:40.444Z,102001.47
2023-04-07T20:14:28.259Z,102003.44
2023-04-07T20:17:14.793Z,102003.19
2023-04-07T20:20:01.309Z,102009.06
2023-04-07T20:22:47.968Z,102003.47
2023-04-07T20:25:35.570Z,102016.28
2023-04-07T20:28:21.982Z,102010.09
2023-04-07T20:31:09.938Z,102012.97
2023-04-07T20:33:56.467Z,102023.88
2023-04-07T20:36:42.676Z,102028.97
2023-04-07T20:39:29.049Z,102044.78
2023-04-07T20:42:15.828Z,102038.69
2023-04-07T20:45:04.680Z,102040.13
2023-04-07T20:47:52.382Z,102050.19
2023-04-07T20:50:38.760Z,102046.97
2023-04-07T20:53:25.177Z,102043.91
2023-04-07T20:56:11.961Z,102041.53
2023-04-07T20:58:58.232Z,102040.84
2023-04-07T21:01:44.881Z,102044.88
2023-04-07T21:04:32.423Z,102046.91
2023-04-07T21:07:18.864Z,102034.50
2023-04-07T21:10:05.526Z,102042.63
2023-04-07T21:12:51.850Z,102042.63
2023-04-07T21:15:38.346Z,102041.78
2023-04-07T21:18:24.949Z,102042.06
2023-04-07T21:21:12.933Z,102042.78
2023-04-07T21:23:59.583Z,102041.09
2023-04-07T21:26:50.270Z,102041.97
2023-04-07T21:29:36.637Z,102043.38
2023-04-07T21:32:23.049Z,102046.47
2023-04-07T21:35:10.443Z,102040.00
2023-04-07T21:37:58.404Z,102054.78
2023-04-07T21:40:44.939Z,102044.94
2023-04-07T21:43:31.395Z,102054.94
2023-04-07T21:46:18.113Z,102063.13
2023-04-07T21:49:04.805Z,102057.34
2023-04-07T21:51:51.280Z,102058.88
2023-04-07T21:54:38.972Z,102059.38
2023-04-07T21:57:25.312Z,102061.06
2023-04-07T22:00:14.013Z,102060.41
2023-04-07T22:03:04.717Z,102065.84
2023-04-07T22:05:51.496Z,102065.00
2023-04-07T22:08:37.845Z,102061.59
2023-04-07T22:11:26.118Z,102062.41
2023-04-07T22:14:13.044Z,102067.34
2023-04-07T22:16:59.280Z,102078.22
2023-04-07T22:19:45.352Z,102075.34
2023-04-07T22:22:31.776Z,102073.91
2023-04-07T22:25:18.310Z,102077.66
2023-04-07T22:28:06.014Z,102074.75
2023-04-07T22:30:52.415Z,102080.56
2023-04-07T22:33:38.721Z,102070.69
2023-04-07T22:36:24.845Z,102075.59
2023-04-07T22:39:11.558Z,102081.56
2023-04-07T22:41:57.850Z,102073.75
2023-04-07T22:44:45.216Z,102085.88
2023-04-07T22:47:31.638Z,102076.50
2023-04-07T22:50:17.940Z,102089.84
2023-04-07T22:53:04.048Z,102091.22
2023-04-07T22:55:50.590Z,102090.56
2023-04-07T22:58:36.966Z,102086.09
2023-04-07T23:01:25.051Z,102089.66
2023-04-07T23:04:11.505Z,102089.91
2023-04-07T23:06:57.706Z,102095.34
2023-04-07T23:09:44.111Z,102096.84
2023-04-07T23:12:31.420Z,102092.59
2023-04-07T23:15:18.511Z,102092.44
2023-04-07T23:18:06.437Z,102099.94
2023-04-07T23:20:53.001Z,102105.88
2023-04-07T23:23:39.551Z,102111.41
2023-04-07T23:26:26.650Z,102105.56
2023-04-07T23:29:13.123Z,102096.59
2023-04-07T23:31:59.310Z,102106.56
2023-04-07T23:34:47.242Z,102104.94
2023-04-07T23:37:33.609Z,102108.31
2023-04-07T23:40:20.378Z,102110.69
2023-04-07T23:43:06.519Z,102113.72
2023-04-07T23:45:52.969Z,102111.22
2023-04-07T23:48:39.577Z,102114.53
2023-04-07T23:51:27.645Z,102109.63
2023-04-07T23:54:13.884Z,102112.50
2023-04-07T23:57:01.564Z,102111.84
2023-04-07T23:59:47.674Z,102111.84
